Share

Agua Branca, Brazil

Paulo Afonso (SBUF) Elev 830 ft | 9.40 °S, 38.22 °W | Change Station

Current weather conditions updated 47 minutes ago

Clear
Clear
79 °F
Feels Like 79 °F
N
8
Wind Variable Wind from SE
Sunrise 5:34 AM
Sunset 5:26 PM
Moon Waning Gibbous

Today is forecast to be Cooler than yesterday.

Pressure 30.01 in
Visibility -9999.0 miles
Clouds
Dew Point 73 °F
Humidity 83%
Rainfall 0.00 in
Snow Depth Not available.
UV Not available.
Pollen Not available.
Air Quality Not available.
Flu Activity Not available.
METAR SBUF 201000Z 13007KT CAVOK 26/23 Q1016

More Conditions Fewer Conditions

Pressure 30.01 in
Visibility -9999.0 miles
Clouds
Dew Point 73 °F
Humidity 83%
Rainfall 0.00 in
Snow Depth Not available.
UV Not available.
Pollen Not available.
Air Quality Not available.
Flu Activity Not available.
METAR SBUF 201000Z 13007KT CAVOK 26/23 Q1016

More Conditions Fewer Conditions

10-Day Weather Forecast

Almanac

Astronomy

Apr. 20, 2014 Rise Set
Actual Time 5:34 AM BRT 5:26 PM BRT
Civil Twilight 5:13 AM BRT 5:47 PM BRT
Nautical Twilight 4:48 AM BRT 6:12 PM BRT
Astronomical Twilight 4:24 AM BRT 6:36 PM BRT
Moon 10:23 PM BRT 10:18 AM BRT
Length of Visible Light 12h 34m
Length of Day
11h 51m
Tomorrow will be 0m 27s shorter.
Waning Gibbous, 71% of the Moon is Illuminated
Today
Waning Gibbous
Apr 22
Last Quarter
Apr 29
New
May 6
First Quarter
May 14
Full

Yesterday's Extremes

Country Highs Country Lows

Community

  • Easter Greetings
    Easter Greetings
  • Sunny day at the coast-Cape Arago Lighthouse
    Sunny day at the coast-Cape Arago Lighthouse
  • Cherry Blossoms
    Cherry Blossoms
  • White-Crowned Sparrow
    White-Crowned Sparrow
  • New Day
    New Day

WunderPhotos

Upload Photos

1,703,135 photos uploaded!

WunderBlogs® & News

Nearby

Snow Depth

Not available.

Coastal Water Temperatures

Place Temperature
No Stations Reporting

Earthquake Activity

City Distance Mag. Time & Date
No recent earthquake activity has been reported nearby.
Minimum magnitude displayed is 2.5.

Nearby Weather Stations

There are no personal weather stations in this area.

What do you think?

We're not finished. Please let us know what you like, what you don't like, and what you are still missing.